createdAt,value
2022-11-30T00:00:12.908Z,82.63
2022-11-30T00:02:39.156Z,82.10
2022-11-30T00:05:06.222Z,88.23
2022-11-30T00:07:33.467Z,83.80
2022-11-30T00:09:59.782Z,89.90
2022-11-30T00:12:28.087Z,85.27
2022-11-30T00:14:54.340Z,80.07
2022-11-30T00:17:20.518Z,87.37
2022-11-30T00:19:46.693Z,92.10
2022-11-30T00:22:12.859Z,82.77
2022-11-30T00:24:38.987Z,81.33
2022-11-30T00:27:05.198Z,96.33
2022-11-30T00:29:31.990Z,93.17
2022-11-30T00:31:58.124Z,77.63
2022-11-30T00:34:24.327Z,69.00
2022-11-30T00:36:50.521Z,72.83
2022-11-30T00:39:16.693Z,72.93
2022-11-30T00:41:43.022Z,82.47
2022-11-30T00:44:09.167Z,68.73
2022-11-30T00:46:35.996Z,77.40
2022-11-30T00:49:02.212Z,73.47
2022-11-30T00:51:28.352Z,70.10
2022-11-30T00:53:54.624Z,69.50
2022-11-30T00:56:20.762Z,69.97
2022-11-30T00:58:47.031Z,62.87
2022-11-30T01:01:13.201Z,68.73
2022-11-30T01:03:40.304Z,74.13
2022-11-30T01:06:08.719Z,68.60
2022-11-30T01:08:35.640Z,65.97
2022-11-30T01:11:07.367Z,65.60
2022-11-30T01:13:33.485Z,68.77
2022-11-30T01:15:59.965Z,70.07
2022-11-30T01:18:26.114Z,68.37
2022-11-30T01:20:52.917Z,66.20
2022-11-30T01:23:19.063Z,73.87
2022-11-30T01:25:53.528Z,78.93
2022-11-30T01:28:19.690Z,71.90
2022-11-30T01:30:55.686Z,69.80
2022-11-30T01:33:21.901Z,72.33
2022-11-30T01:35:48.021Z,72.40
2022-11-30T01:38:14.999Z,66.67
2022-11-30T01:40:49.378Z,80.30
2022-11-30T01:43:19.810Z,68.97
2022-11-30T01:45:47.804Z,74.30
2022-11-30T01:48:14.027Z,77.83
2022-11-30T01:50:40.291Z,74.73
2022-11-30T01:53:08.987Z,70.67
2022-11-30T01:55:38.819Z,83.87
2022-11-30T01:58:07.669Z,75.33
2022-11-30T02:00:34.040Z,79.10
2022-11-30T02:03:02.239Z,75.67
2022-11-30T02:05:28.752Z,75.17
2022-11-30T02:07:55.437Z,74.87
2022-11-30T02:10:25.038Z,85.10
2022-11-30T02:13:18.298Z,83.17
2022-11-30T02:15:49.664Z,82.27
2022-11-30T02:18:20.974Z,85.83
2022-11-30T02:20:59.053Z,81.47
2022-11-30T02:23:44.351Z,95.57
2022-11-30T02:26:22.807Z,89.47
2022-11-30T02:29:03.438Z,98.90
2022-11-30T02:31:33.444Z,94.83
2022-11-30T02:34:00.238Z,101.63
2022-11-30T02:36:26.839Z,99.13
2022-11-30T02:38:53.174Z,102.30
2022-11-30T02:41:19.352Z,112.63
2022-11-30T02:43:45.569Z,110.80
2022-11-30T02:46:16.151Z,121.03
2022-11-30T02:48:43.927Z,122.30
2022-11-30T02:51:12.822Z,118.40
2022-11-30T02:53:39.113Z,135.23
2022-11-30T02:56:05.482Z,118.47
2022-11-30T02:58:31.717Z,129.00
2022-11-30T03:00:57.910Z,134.77
2022-11-30T03:03:24.667Z,125.87
2022-11-30T03:05:51.361Z,132.33
2022-11-30T03:08:17.525Z,125.37
2022-11-30T03:10:43.667Z,126.60
2022-11-30T03:13:09.849Z,129.23
2022-11-30T03:15:35.996Z,113.57
2022-11-30T03:18:02.306Z,116.30
2022-11-30T03:20:29.320Z,122.30
2022-11-30T03:22:59.049Z,120.10
2022-11-30T03:25:25.191Z,125.30
2022-11-30T03:27:51.355Z,113.90
2022-11-30T03:30:17.791Z,112.57
2022-11-30T03:32:43.942Z,99.97
2022-11-30T03:35:10.149Z,100.80
2022-11-30T03:37:37.003Z,104.93
2022-11-30T03:40:03.576Z,95.00
2022-11-30T03:42:29.679Z,92.30
2022-11-30T03:44:55.882Z,86.63
2022-11-30T03:47:22.029Z,82.73
2022-11-30T03:49:48.222Z,93.50
2022-11-30T03:52:14.405Z,84.47
2022-11-30T03:54:41.189Z,83.93
2022-11-30T03:57:07.401Z,98.80
2022-11-30T03:59:33.544Z,109.47
2022-11-30T04:01:59.732Z,105.40
2022-11-30T04:04:25.938Z,114.10
2022-11-30T04:06:52.094Z,94.57
2022-11-30T04:09:18.261Z,106.10
2022-11-30T04:11:45.059Z,104.30
2022-11-30T04:14:11.381Z,115.13
2022-11-30T04:16:37.776Z,117.20
2022-11-30T04:19:04.034Z,123.20
2022-11-30T04:21:30.195Z,116.80
2022-11-30T04:23:56.369Z,134.43
2022-11-30T04:26:22.522Z,122.53
2022-11-30T04:28:49.337Z,124.83
2022-11-30T04:31:17.521Z,132.07
2022-11-30T04:33:43.855Z,132.33
2022-11-30T04:36:16.646Z,132.93
2022-11-30T04:38:42.857Z,132.23
2022-11-30T04:41:09.098Z,151.73
2022-11-30T04:43:35.323Z,151.93
2022-11-30T04:46:02.389Z,141.90
2022-11-30T04:48:28.579Z,138.77
2022-11-30T04:51:00.021Z,151.67
2022-11-30T04:53:26.210Z,137.40
2022-11-30T04:55:52.424Z,135.33
2022-11-30T04:58:18.600Z,121.37
2022-11-30T05:00:44.910Z,95.20
2022-11-30T05:03:11.771Z,93.13
2022-11-30T05:05:38.165Z,82.43
2022-11-30T05:08:04.473Z,78.53
2022-11-30T05:10:33.039Z,78.77
2022-11-30T05:12:59.261Z,81.77
2022-11-30T05:15:25.462Z,84.70
2022-11-30T05:17:52.529Z,77.80
2022-11-30T05:20:19.376Z,91.33
2022-11-30T05:22:45.580Z,73.50
2022-11-30T05:25:11.873Z,71.60
2022-11-30T05:27:40.423Z,71.77
2022-11-30T05:30:08.714Z,73.00
2022-11-30T05:32:35.052Z,75.00
2022-11-30T05:35:01.213Z,68.50
2022-11-30T05:37:28.117Z,73.07
2022-11-30T05:39:54.269Z,70.83
2022-11-30T05:42:20.613Z,67.77
2022-11-30T05:44:47.540Z,64.27
2022-11-30T05:47:14.148Z,60.47
2022-11-30T05:49:40.328Z,67.17
2022-11-30T05:52:06.471Z,60.00
2022-11-30T05:54:33.947Z,66.37
2022-11-30T05:57:00.224Z,60.47
2022-11-30T05:59:26.402Z,63.87
2022-11-30T06:01:52.831Z,57.30
2022-11-30T06:04:19.277Z,54.67
2022-11-30T06:06:45.921Z,56.00
2022-11-30T06:09:12.166Z,58.80
2022-11-30T06:11:38.958Z,52.17
2022-11-30T06:14:05.197Z,58.67
2022-11-30T06:16:31.548Z,50.57
2022-11-30T06:18:57.761Z,52.17
2022-11-30T06:21:24.809Z,50.20
2022-11-30T06:23:51.460Z,48.03
2022-11-30T06:26:17.607Z,52.00
2022-11-30T06:28:48.232Z,50.33
2022-11-30T06:31:15.784Z,48.73
2022-11-30T06:33:42.058Z,52.27
2022-11-30T06:36:08.983Z,45.53
2022-11-30T06:38:35.138Z,43.43
2022-11-30T06:41:05.306Z,52.43
2022-11-30T06:43:33.454Z,51.80
2022-11-30T06:46:01.688Z,49.63
2022-11-30T06:48:27.960Z,53.13
2022-11-30T06:50:54.693Z,51.43
2022-11-30T06:53:20.936Z,50.93
2022-11-30T06:55:47.151Z,52.73
2022-11-30T06:58:13.609Z,49.50
2022-11-30T07:00:40.269Z,53.57
2022-11-30T07:03:07.109Z,48.73
2022-11-30T07:05:34.644Z,46.27
2022-11-30T07:08:00.838Z,53.47
2022-11-30T07:10:27.255Z,44.37
2022-11-30T07:12:53.515Z,47.60
2022-11-30T07:15:19.667Z,46.57
2022-11-30T07:17:45.887Z,50.30
2022-11-30T07:20:13.118Z,47.50
2022-11-30T07:22:39.288Z,46.50
2022-11-30T07:25:24.215Z,47.80
2022-11-30T07:27:50.374Z,49.03
2022-11-30T07:30:17.138Z,46.93
2022-11-30T07:32:43.279Z,48.10
2022-11-30T07:35:09.511Z,47.07
2022-11-30T07:37:36.369Z,45.23
2022-11-30T07:40:03.547Z,44.60
2022-11-30T07:42:29.925Z,50.90
2022-11-30T07:44:59.021Z,44.97
2022-11-30T07:47:25.608Z,41.90
2022-11-30T07:49:51.823Z,49.07
2022-11-30T07:52:17.982Z,45.07
2022-11-30T07:54:45.093Z,44.60
2022-11-30T07:57:11.670Z,51.60
2022-11-30T07:59:37.811Z,46.73
2022-11-30T08:02:04.032Z,44.23
2022-11-30T08:04:30.367Z,50.90
2022-11-30T08:06:56.586Z,46.40
2022-11-30T08:09:22.792Z,45.73
2022-11-30T08:11:49.904Z,45.70
2022-11-30T08:14:16.075Z,49.33
2022-11-30T08:16:43.309Z,54.13
2022-11-30T08:19:09.775Z,47.07
2022-11-30T08:21:37.287Z,49.47
2022-11-30T08:24:03.953Z,52.73
2022-11-30T08:26:32.102Z,57.23
2022-11-30T08:28:59.869Z,47.03
2022-11-30T08:31:28.156Z,54.17
2022-11-30T08:33:56.088Z,55.83
2022-11-30T08:36:23.059Z,47.33
2022-11-30T08:38:49.370Z,52.23
2022-11-30T08:41:18.296Z,50.33
2022-11-30T08:43:44.803Z,50.93
2022-11-30T08:46:42.430Z,50.50
2022-11-30T08:49:19.956Z,53.50
2022-11-30T08:54:32.139Z,56.20
2022-11-30T08:56:58.423Z,57.63
2022-11-30T08:59:24.730Z,53.77
2022-11-30T09:01:51.506Z,56.77
2022-11-30T09:04:17.701Z,52.33
2022-11-30T09:06:43.883Z,54.77
2022-11-30T09:09:10.086Z,67.80
2022-11-30T09:11:36.191Z,64.40
2022-11-30T09:14:04.035Z,65.53
2022-11-30T09:16:31.027Z,74.70
2022-11-30T09:18:57.891Z,77.83
2022-11-30T09:21:24.723Z,75.03
2022-11-30T09:23:51.642Z,77.00
2022-11-30T09:26:19.416Z,74.27
2022-11-30T09:28:47.234Z,73.83
2022-11-30T09:31:15.242Z,81.43
2022-11-30T09:33:41.864Z,75.20
2022-11-30T09:36:10.260Z,77.17
2022-11-30T09:38:36.891Z,74.80
2022-11-30T09:41:05.656Z,77.03
2022-11-30T09:43:37.478Z,95.53
2022-11-30T09:46:05.798Z,108.57
2022-11-30T09:48:51.087Z,113.10
2022-11-30T09:51:20.485Z,101.00
2022-11-30T09:53:50.674Z,106.77
2022-11-30T09:56:21.231Z,109.47
2022-11-30T09:58:51.057Z,100.30
2022-11-30T10:01:18.972Z,97.60
2022-11-30T10:03:45.484Z,99.90
2022-11-30T10:06:20.707Z,96.47
2022-11-30T10:08:55.370Z,94.60
2022-11-30T10:11:33.758Z,98.67
2022-11-30T10:14:17.275Z,88.10
2022-11-30T10:16:49.862Z,94.23
2022-11-30T10:19:26.860Z,103.73
2022-11-30T10:22:01.428Z,94.77
2022-11-30T10:24:33.878Z,97.00
2022-11-30T10:27:06.220Z,96.20
2022-11-30T10:29:34.761Z,96.87
2022-11-30T10:32:13.613Z,96.20
2022-11-30T10:34:40.772Z,85.17
2022-11-30T10:37:12.698Z,100.07
2022-11-30T10:39:43.363Z,91.77
2022-11-30T10:42:12.477Z,93.70
2022-11-30T10:44:40.514Z,93.60
2022-11-30T10:47:12.911Z,96.10
2022-11-30T10:49:48.401Z,86.90
2022-11-30T10:52:16.982Z,100.80
2022-11-30T10:54:43.152Z,88.13
2022-11-30T10:57:09.522Z,95.50
2022-11-30T10:59:40.767Z,84.77
2022-11-30T11:02:33.967Z,83.27
2022-11-30T11:05:08.834Z,79.87
2022-11-30T11:07:44.888Z,78.17
2022-11-30T11:10:13.029Z,102.80
2022-11-30T11:12:39.240Z,94.70
2022-11-30T11:15:10.088Z,76.90
2022-11-30T11:17:36.236Z,72.33
2022-11-30T11:20:02.565Z,66.07
2022-11-30T11:22:30.876Z,68.43
2022-11-30T11:25:10.368Z,73.47
2022-11-30T11:27:39.941Z,74.17
2022-11-30T11:30:16.279Z,75.77
2022-11-30T11:32:57.445Z,76.10
2022-11-30T11:35:32.707Z,71.37
2022-11-30T11:37:58.926Z,66.27
2022-11-30T11:40:26.043Z,71.63
2022-11-30T11:42:53.618Z,67.00
2022-11-30T11:45:22.078Z,72.07
2022-11-30T11:47:58.043Z,71.17
2022-11-30T11:50:58.262Z,68.87
2022-11-30T11:53:22.081Z,64.60
2022-11-30T11:55:51.819Z,63.07
2022-11-30T11:58:24.049Z,68.90
2022-11-30T12:00:57.638Z,76.77
2022-11-30T12:03:38.702Z,69.00
2022-11-30T12:06:09.338Z,61.13
2022-11-30T12:08:40.805Z,70.27
2022-11-30T12:11:11.388Z,62.93
2022-11-30T12:13:38.887Z,62.93
2022-11-30T12:16:14.259Z,62.27
2022-11-30T12:18:46.661Z,62.10
2022-11-30T12:21:14.861Z,65.43
2022-11-30T12:23:54.063Z,65.47
2022-11-30T12:26:29.164Z,69.70
2022-11-30T12:29:17.647Z,63.63
2022-11-30T12:31:53.154Z,57.33
2022-11-30T12:34:25.312Z,65.43
2022-11-30T12:36:55.669Z,61.60
2022-11-30T12:39:29.799Z,62.10
2022-11-30T12:42:00.323Z,61.67
2022-11-30T12:44:42.386Z,63.23
2022-11-30T12:47:21.391Z,68.17
2022-11-30T12:49:59.156Z,70.50
2022-11-30T12:52:34.360Z,64.50
2022-11-30T12:55:07.384Z,74.97
2022-11-30T12:57:37.395Z,66.67
2022-11-30T13:00:08.506Z,68.83
2022-11-30T13:02:57.900Z,60.63
2022-11-30T13:05:26.425Z,60.30
2022-11-30T13:07:57.774Z,57.80
2022-11-30T13:10:28.407Z,64.20
2022-11-30T13:12:55.871Z,64.20
2022-11-30T13:15:24.437Z,62.53
2022-11-30T13:17:51.364Z,62.70
2022-11-30T13:20:23.271Z,72.40
2022-11-30T13:22:52.631Z,70.23
2022-11-30T13:25:59.330Z,70.93
2022-11-30T13:28:17.096Z,65.77
2022-11-30T13:30:48.411Z,68.40
2022-11-30T13:33:47.777Z,69.73
2022-11-30T13:36:31.601Z,64.70
2022-11-30T13:39:21.068Z,66.93
2022-11-30T13:41:48.221Z,67.20
2022-11-30T13:44:30.059Z,62.03
2022-11-30T13:46:56.656Z,62.03
2022-11-30T13:49:26.551Z,65.77
2022-11-30T13:52:20.770Z,63.40
2022-11-30T13:54:40.210Z,60.37
2022-11-30T13:57:31.504Z,61.80
2022-11-30T13:59:58.962Z,65.03
2022-11-30T14:03:12.968Z,62.60
2022-11-30T14:05:40.378Z,62.67
2022-11-30T14:08:15.183Z,63.03
2022-11-30T14:10:42.820Z,59.23
2022-11-30T14:13:30.805Z,63.83
2022-11-30T14:15:59.750Z,64.83
2022-11-30T14:18:39.521Z,67.87
2022-11-30T14:21:14.707Z,67.83
2022-11-30T14:23:46.498Z,70.07
2022-11-30T14:26:14.716Z,68.80
2022-11-30T14:28:44.253Z,68.80
2022-11-30T14:31:16.123Z,72.47
2022-11-30T14:33:45.881Z,65.70
2022-11-30T14:36:12.017Z,70.33
2022-11-30T14:38:40.644Z,65.50
2022-11-30T14:41:20.376Z,68.77
2022-11-30T14:44:04.343Z,65.23
2022-11-30T14:46:34.248Z,66.80
2022-11-30T14:49:12.843Z,66.60
2022-11-30T14:51:39.225Z,68.57
2022-11-30T14:54:13.053Z,70.03
2022-11-30T14:56:42.548Z,71.53
2022-11-30T14:59:23.271Z,76.67
2022-11-30T15:01:55.669Z,75.63
2022-11-30T15:04:22.287Z,68.93
2022-11-30T15:06:48.480Z,68.67
2022-11-30T15:09:17.257Z,69.07
2022-11-30T15:11:45.233Z,69.97
2022-11-30T15:14:11.411Z,62.40
2022-11-30T15:16:37.846Z,76.30
2022-11-30T15:19:19.105Z,64.70
2022-11-30T15:21:46.570Z,71.03
2022-11-30T15:24:12.880Z,73.33
2022-11-30T15:26:50.394Z,65.57
2022-11-30T15:29:22.178Z,69.20
2022-11-30T15:31:49.832Z,62.30
2022-11-30T15:34:21.059Z,65.47
2022-11-30T15:36:47.615Z,61.97
2022-11-30T15:39:18.165Z,77.30
2022-11-30T15:41:44.351Z,65.80
2022-11-30T15:44:23.211Z,73.63
2022-11-30T15:46:56.017Z,67.37
2022-11-30T15:49:25.899Z,54.87
2022-11-30T15:52:01.389Z,61.80
2022-11-30T15:54:48.006Z,58.27
2022-11-30T15:57:14.900Z,56.60
2022-11-30T15:59:41.160Z,54.93
2022-11-30T16:02:24.407Z,60.23
2022-11-30T16:05:25.075Z,57.30
2022-11-30T16:07:53.679Z,54.93
2022-11-30T16:10:23.145Z,53.83
2022-11-30T16:12:50.965Z,54.23
2022-11-30T16:15:19.257Z,59.30
2022-11-30T16:17:45.469Z,67.17
2022-11-30T16:20:13.284Z,63.77
2022-11-30T16:22:41.073Z,60.53
2022-11-30T16:25:12.169Z,71.60
2022-11-30T16:27:38.342Z,67.50
2022-11-30T16:30:05.843Z,66.33
2022-11-30T16:32:32.020Z,59.53
2022-11-30T16:34:58.176Z,63.37
2022-11-30T16:37:24.405Z,65.57
2022-11-30T16:39:51.330Z,60.43
2022-11-30T16:42:17.680Z,55.23
2022-11-30T16:44:44.008Z,63.33
2022-11-30T16:47:10.228Z,56.67
2022-11-30T16:49:36.535Z,52.27
2022-11-30T16:52:03.867Z,57.73
2022-11-30T16:54:30.266Z,51.83
2022-11-30T16:56:57.240Z,53.83
2022-11-30T16:59:23.463Z,65.27
2022-11-30T17:01:52.132Z,57.70
2022-11-30T17:04:21.119Z,55.70
2022-11-30T17:06:50.582Z,52.07
2022-11-30T17:09:21.171Z,56.13
2022-11-30T17:11:49.686Z,56.03
2022-11-30T17:14:16.905Z,59.93
2022-11-30T17:16:43.140Z,57.10
2022-11-30T17:19:09.411Z,61.83
2022-11-30T17:21:37.808Z,65.37
2022-11-30T17:24:05.526Z,65.17
2022-11-30T17:26:31.739Z,67.43
2022-11-30T17:28:58.027Z,64.80
2022-11-30T17:31:24.843Z,65.80
2022-11-30T17:33:51.127Z,67.87
2022-11-30T17:36:18.342Z,61.33
2022-11-30T17:38:44.937Z,79.47
2022-11-30T17:41:18.583Z,72.73
2022-11-30T17:43:45.768Z,63.53
2022-11-30T17:46:14.881Z,70.57
2022-11-30T17:48:42.196Z,61.47
2022-11-30T17:51:08.630Z,65.43
2022-11-30T17:53:36.675Z,64.40
2022-11-30T17:56:03.686Z,65.37
2022-11-30T17:58:34.134Z,64.97
2022-11-30T18:01:01.575Z,63.83
2022-11-30T18:03:27.798Z,66.20
2022-11-30T18:05:59.490Z,64.07
2022-11-30T18:08:25.778Z,71.07
2022-11-30T18:10:52.025Z,66.10
2022-11-30T18:13:18.403Z,72.20
2022-11-30T18:15:44.568Z,74.37
2022-11-30T18:18:10.749Z,77.17
2022-11-30T18:20:37.036Z,79.03
2022-11-30T18:23:04.062Z,81.27
2022-11-30T18:25:30.234Z,77.73
2022-11-30T18:27:56.449Z,76.80
2022-11-30T18:30:22.685Z,76.33
2022-11-30T18:32:49.056Z,75.93
2022-11-30T18:35:15.556Z,76.47
2022-11-30T18:37:41.819Z,79.60
2022-11-30T18:40:10.593Z,77.13
2022-11-30T18:42:36.984Z,88.60
2022-11-30T18:45:03.803Z,88.47
2022-11-30T18:47:30.037Z,95.10
2022-11-30T18:49:56.565Z,81.80
2022-11-30T18:52:22.991Z,82.57
2022-11-30T18:54:50.024Z,89.20
2022-11-30T18:57:17.189Z,80.87
2022-11-30T18:59:44.317Z,86.03
2022-11-30T19:02:11.128Z,83.30
2022-11-30T19:04:38.004Z,83.87
2022-11-30T19:07:04.367Z,76.97
2022-11-30T19:09:30.988Z,77.13
2022-11-30T19:11:59.458Z,72.73
2022-11-30T19:14:26.503Z,65.80
2022-11-30T19:16:52.978Z,72.50
2022-11-30T19:19:20.912Z,72.03
2022-11-30T19:21:47.266Z,72.87
2022-11-30T19:24:14.338Z,75.83
2022-11-30T19:26:40.752Z,67.17
2022-11-30T19:29:07.593Z,69.67
2022-11-30T19:31:34.560Z,61.70
2022-11-30T19:34:04.625Z,63.13
2022-11-30T19:36:32.819Z,61.77
2022-11-30T19:38:59.796Z,58.43
2022-11-30T19:41:26.712Z,63.17
2022-11-30T19:44:02.778Z,52.80
2022-11-30T19:46:30.796Z,58.33
2022-11-30T19:49:00.267Z,57.13
2022-11-30T19:51:27.119Z,50.00
2022-11-30T19:53:54.958Z,47.30
2022-11-30T19:56:22.559Z,60.10
2022-11-30T19:58:49.163Z,48.90
2022-11-30T20:01:17.212Z,45.57
2022-11-30T20:03:43.663Z,46.77
2022-11-30T20:06:10.914Z,37.43
2022-11-30T20:08:37.674Z,43.07
2022-11-30T20:11:05.622Z,33.67
2022-11-30T20:13:31.964Z,30.27
2022-11-30T20:15:58.524Z,28.70
2022-11-30T20:18:25.254Z,35.97
2022-11-30T20:20:51.490Z,26.47
2022-11-30T20:23:18.515Z,34.17
2022-11-30T20:25:44.815Z,25.17
2022-11-30T20:28:12.739Z,27.77
2022-11-30T20:30:39.226Z,21.50
2022-11-30T20:33:05.453Z,21.30
2022-11-30T20:35:31.686Z,23.77
2022-11-30T20:37:57.841Z,23.00
2022-11-30T20:40:24.881Z,24.90
2022-11-30T20:42:51.206Z,23.10
2022-11-30T20:45:17.492Z,23.53
2022-11-30T20:47:43.636Z,27.87
2022-11-30T20:50:10.689Z,26.63
2022-11-30T20:52:36.872Z,29.43
2022-11-30T20:55:03.160Z,26.57
2022-11-30T20:57:30.027Z,29.70
2022-11-30T20:59:56.224Z,31.90
2022-11-30T21:02:22.525Z,33.30
2022-11-30T21:04:48.927Z,32.03
2022-11-30T21:07:15.823Z,28.97
2022-11-30T21:09:42.557Z,29.10
2022-11-30T21:12:08.988Z,28.93
2022-11-30T21:14:36.266Z,30.00
2022-11-30T21:17:02.488Z,30.03
2022-11-30T21:19:28.650Z,31.50
2022-11-30T21:21:55.809Z,31.20
2022-11-30T21:24:22.013Z,29.23
2022-11-30T21:26:48.239Z,31.70
2022-11-30T21:29:15.876Z,34.40
2022-11-30T21:31:43.559Z,29.97
2022-11-30T21:34:09.839Z,34.80
2022-11-30T21:36:36.035Z,29.23
2022-11-30T21:39:06.389Z,28.87
2022-11-30T21:41:33.782Z,30.67
2022-11-30T21:44:00.148Z,27.50
2022-11-30T21:46:26.565Z,24.87
2022-11-30T21:48:53.371Z,30.37
2022-11-30T21:51:21.549Z,28.67
2022-11-30T21:53:49.300Z,27.37
2022-11-30T21:56:17.710Z,29.93
2022-11-30T21:58:47.173Z,32.00
2022-11-30T22:01:14.826Z,29.60
2022-11-30T22:03:41.404Z,27.53
2022-11-30T22:06:09.541Z,33.83
2022-11-30T22:08:36.221Z,29.10
2022-11-30T22:11:03.419Z,24.87
2022-11-30T22:13:30.098Z,30.27
2022-11-30T22:15:57.602Z,26.60
2022-11-30T22:18:23.817Z,30.40
2022-11-30T22:20:49.957Z,32.73
2022-11-30T22:23:16.908Z,33.43
2022-11-30T22:25:43.082Z,33.80
2022-11-30T22:28:09.276Z,30.63
2022-11-30T22:30:35.453Z,31.20
2022-11-30T22:33:01.574Z,30.57
2022-11-30T22:35:27.714Z,35.27
2022-11-30T22:37:54.049Z,36.27
2022-11-30T22:40:20.859Z,33.73
2022-11-30T22:42:46.983Z,39.63
2022-11-30T22:45:13.116Z,33.77
2022-11-30T22:47:39.292Z,35.47
2022-11-30T22:50:06.643Z,42.83
2022-11-30T22:53:01.358Z,40.33
2022-11-30T22:55:19.173Z,36.87
2022-11-30T22:57:46.193Z,35.40
2022-11-30T23:00:13.457Z,27.87
2022-11-30T23:02:39.652Z,34.33
2022-11-30T23:05:06.309Z,36.40
2022-11-30T23:07:32.604Z,36.37
2022-11-30T23:09:58.754Z,34.50
2022-11-30T23:12:51.308Z,34.80
2022-11-30T23:15:12.458Z,37.03
2022-11-30T23:17:38.619Z,36.37
2022-11-30T23:20:06.138Z,40.30
2022-11-30T23:22:34.949Z,40.23
2022-11-30T23:25:01.146Z,41.20
2022-11-30T23:27:27.432Z,44.13
2022-11-30T23:29:53.561Z,43.57
2022-11-30T23:32:20.408Z,42.70
2022-11-30T23:34:50.546Z,42.63
2022-11-30T23:37:16.970Z,44.13
2022-11-30T23:39:43.148Z,51.50
2022-11-30T23:42:09.294Z,57.70
2022-11-30T23:44:35.473Z,52.03
2022-11-30T23:47:01.690Z,55.20
2022-11-30T23:49:28.488Z,60.47
2022-11-30T23:51:54.807Z,56.80
2022-11-30T23:54:20.960Z,49.10
2022-11-30T23:56:47.744Z,52.70
2022-11-30T23:59:13.937Z,58.53
